createdAt,value
2017-01-10T00:00:01.433Z,4.84
2017-01-10T00:01:01.438Z,4.78
2017-01-10T00:02:01.446Z,4.82
2017-01-10T00:03:01.465Z,4.84
2017-01-10T00:04:01.469Z,4.8
2017-01-10T00:05:01.483Z,4.82
2017-01-10T00:06:01.487Z,4.74
2017-01-10T00:07:01.524Z,4.75
2017-01-10T00:08:01.523Z,4.82
2017-01-10T00:09:01.524Z,4.84
2017-01-10T00:10:01.534Z,4.67
2017-01-10T00:11:01.550Z,4.67
2017-01-10T00:12:01.554Z,4.74
2017-01-10T00:13:01.564Z,4.63
2017-01-10T00:14:01.576Z,4.63
2017-01-10T00:15:01.595Z,4.7
2017-01-10T00:16:01.603Z,4.75
2017-01-10T00:17:01.609Z,4.68
2017-01-10T00:18:01.617Z,4.75
2017-01-10T00:19:01.626Z,4.8
2017-01-10T00:20:01.638Z,4.84
2017-01-10T00:21:01.650Z,4.86
2017-01-10T00:22:01.657Z,4.73
2017-01-10T00:23:01.668Z,4.8
2017-01-10T00:24:01.679Z,4.84
2017-01-10T00:25:01.690Z,4.68
2017-01-10T00:26:01.700Z,4.78
2017-01-10T00:27:01.712Z,4.67
2017-01-10T00:28:01.720Z,4.7
2017-01-10T00:29:01.731Z,4.82
2017-01-10T00:30:01.745Z,4.77
2017-01-10T00:31:01.763Z,4.82
2017-01-10T00:32:01.762Z,4.73
2017-01-10T00:33:01.775Z,4.68
2017-01-10T00:34:01.784Z,4.75
2017-01-10T00:35:01.796Z,4.74
2017-01-10T00:36:01.809Z,4.68
2017-01-10T00:37:01.815Z,4.77
2017-01-10T00:38:01.826Z,4.74
2017-01-10T00:39:01.837Z,4.77
2017-01-10T00:40:01.845Z,4.73
2017-01-10T00:41:01.861Z,4.63
2017-01-10T00:42:01.865Z,4.7
2017-01-10T00:43:01.882Z,4.7
2017-01-10T00:44:01.895Z,4.73
2017-01-10T00:45:01.903Z,4.68
2017-01-10T00:46:01.918Z,4.7
2017-01-10T00:47:01.927Z,4.73
2017-01-10T00:48:01.932Z,4.75
2017-01-10T00:49:01.951Z,4.74
2017-01-10T00:50:01.958Z,4.7
2017-01-10T00:51:01.965Z,4.7
2017-01-10T00:52:01.979Z,4.74
2017-01-10T00:53:01.986Z,4.71
2017-01-10T00:54:01.998Z,4.71
2017-01-10T00:55:02.006Z,4.7
2017-01-10T00:56:02.040Z,4.68
2017-01-10T00:57:02.028Z,4.73
2017-01-10T00:58:02.046Z,4.67
2017-01-10T00:59:02.047Z,4.68
2017-01-10T01:00:02.059Z,4.67
2017-01-10T01:01:02.066Z,4.74
2017-01-10T01:02:02.078Z,4.73
2017-01-10T01:03:02.089Z,4.73
2017-01-10T01:04:02.102Z,4.67
2017-01-10T01:05:02.112Z,4.78
2017-01-10T01:06:02.122Z,4.67
2017-01-10T01:07:02.133Z,4.75
2017-01-10T01:08:02.142Z,4.71
2017-01-10T01:09:02.154Z,4.73
2017-01-10T01:10:02.163Z,4.71
2017-01-10T01:11:02.185Z,4.67
2017-01-10T01:12:02.188Z,4.58
2017-01-10T01:13:02.199Z,4.7
2017-01-10T01:14:02.208Z,4.67
2017-01-10T01:15:02.220Z,4.6
2017-01-10T01:16:02.235Z,4.56
2017-01-10T01:17:02.272Z,4.7
2017-01-10T01:18:02.248Z,4.67
2017-01-10T01:19:02.284Z,4.59
2017-01-10T01:20:08.546Z,4.7
2017-01-10T01:21:02.289Z,4.63
2017-01-10T01:22:02.293Z,4.59
2017-01-10T01:23:02.311Z,4.56
2017-01-10T01:24:02.346Z,4.6
2017-01-10T01:25:02.333Z,4.6
2017-01-10T01:26:02.338Z,4.67
2017-01-10T01:27:02.347Z,4.71
2017-01-10T01:28:02.356Z,4.56
2017-01-10T01:29:02.369Z,4.6
2017-01-10T01:30:02.387Z,4.68
2017-01-10T01:31:02.390Z,4.59
2017-01-10T01:32:02.401Z,4.56
2017-01-10T01:33:02.417Z,4.56
2017-01-10T01:34:02.424Z,4.59
2017-01-10T01:35:02.430Z,4.59
2017-01-10T01:36:02.438Z,4.58
2017-01-10T01:37:02.457Z,4.56
2017-01-10T01:38:02.469Z,4.56
2017-01-10T01:39:02.473Z,4.63
2017-01-10T01:40:02.480Z,4.6
2017-01-10T01:41:02.496Z,4.59
2017-01-10T01:42:02.513Z,4.58
2017-01-10T01:43:02.513Z,4.6
2017-01-10T01:44:02.534Z,4.62
2017-01-10T01:45:02.537Z,4.62
2017-01-10T01:46:02.561Z,4.6
2017-01-10T01:47:02.562Z,4.62
2017-01-10T01:48:02.572Z,4.59
2017-01-10T01:49:02.580Z,4.6
2017-01-10T01:50:02.591Z,4.56
2017-01-10T01:51:02.600Z,4.63
2017-01-10T01:52:02.624Z,4.59
2017-01-10T01:53:02.623Z,4.58
2017-01-10T01:54:02.651Z,4.56
2017-01-10T01:55:02.647Z,4.58
2017-01-10T01:56:02.655Z,4.52
2017-01-10T01:57:02.670Z,4.6
2017-01-10T01:58:02.680Z,4.6
2017-01-10T01:59:02.688Z,4.55
2017-01-10T02:00:02.728Z,4.56
2017-01-10T02:01:02.708Z,4.53
2017-01-10T02:02:02.730Z,4.53
2017-01-10T02:03:02.725Z,4.55
2017-01-10T02:04:02.739Z,4.58
2017-01-10T02:05:02.747Z,4.59
2017-01-10T02:06:02.772Z,4.56
2017-01-10T02:07:02.769Z,4.58
2017-01-10T02:08:02.783Z,4.52
2017-01-10T02:09:02.790Z,4.56
2017-01-10T02:10:03.201Z,4.58
2017-01-10T02:11:02.812Z,4.56
2017-01-10T02:12:02.822Z,4.6
2017-01-10T02:13:02.833Z,4.52
2017-01-10T02:14:02.934Z,4.53
2017-01-10T02:15:02.850Z,4.59
2017-01-10T02:16:02.911Z,4.58
2017-01-10T02:17:02.893Z,4.55
2017-01-10T02:18:02.892Z,4.55
2017-01-10T02:19:02.966Z,4.52
2017-01-10T02:20:03.028Z,4.52
2017-01-10T02:21:03.187Z,4.58
2017-01-10T02:22:02.954Z,4.49
2017-01-10T02:23:02.940Z,4.42
2017-01-10T02:24:02.963Z,4.52
2017-01-10T02:25:02.981Z,4.56
2017-01-10T02:26:02.981Z,4.52
2017-01-10T02:27:02.978Z,4.55
2017-01-10T02:28:03.007Z,4.53
2017-01-10T02:29:03.002Z,4.52
2017-01-10T02:30:03.034Z,4.55
2017-01-10T02:31:03.049Z,4.55
2017-01-10T02:32:03.054Z,4.52
2017-01-10T02:33:03.057Z,4.52
2017-01-10T02:34:03.053Z,4.55
2017-01-10T02:35:03.060Z,4.52
2017-01-10T02:36:03.089Z,4.49
2017-01-10T02:37:03.175Z,4.48
2017-01-10T02:38:03.115Z,4.5
2017-01-10T02:39:03.107Z,4.49
2017-01-10T02:40:03.121Z,4.44
2017-01-10T02:41:03.155Z,4.53
2017-01-10T02:42:03.147Z,4.5
2017-01-10T02:43:03.144Z,4.5
2017-01-10T02:44:03.169Z,4.48
2017-01-10T02:45:03.165Z,4.49
2017-01-10T02:46:03.190Z,4.53
2017-01-10T02:47:03.192Z,4.5
2017-01-10T02:48:03.200Z,4.56
2017-01-10T02:49:03.221Z,4.44
2017-01-10T02:50:03.251Z,4.45
2017-01-10T02:51:03.232Z,4.45
2017-01-10T02:52:03.298Z,4.56
2017-01-10T02:53:03.248Z,4.53
2017-01-10T02:54:03.293Z,4.48
2017-01-10T02:55:03.272Z,4.42
2017-01-10T02:56:03.288Z,4.55
2017-01-10T02:57:03.293Z,4.52
2017-01-10T02:58:03.310Z,4.49
2017-01-10T02:59:03.711Z,4.49
2017-01-10T03:00:03.332Z,4.55
2017-01-10T03:01:03.729Z,4.48
2017-01-10T03:02:03.345Z,4.42
2017-01-10T03:03:03.355Z,4.49
2017-01-10T03:04:03.372Z,4.44
2017-01-10T03:05:03.380Z,4.52
2017-01-10T03:06:03.399Z,4.42
2017-01-10T03:07:03.397Z,4.49
2017-01-10T03:08:03.423Z,4.45
2017-01-10T03:09:03.418Z,4.55
2017-01-10T03:10:03.429Z,4.48
2017-01-10T03:11:03.447Z,4.55
2017-01-10T03:12:03.449Z,4.48
2017-01-10T03:13:03.459Z,4.48
2017-01-10T03:14:03.507Z,4.45
2017-01-10T03:15:03.484Z,4.49
2017-01-10T03:16:03.495Z,4.48
2017-01-10T03:17:03.503Z,4.49
2017-01-10T03:18:03.513Z,4.49
2017-01-10T03:19:03.524Z,4.45
2017-01-10T03:20:03.540Z,4.5
2017-01-10T03:21:03.545Z,4.55
2017-01-10T03:22:03.564Z,4.45
2017-01-10T03:23:03.567Z,4.45
2017-01-10T03:24:03.578Z,4.53
2017-01-10T03:25:03.588Z,4.53
2017-01-10T03:26:03.596Z,4.4
2017-01-10T03:27:03.605Z,4.53
2017-01-10T03:28:03.618Z,4.49
2017-01-10T03:29:03.631Z,4.49
2017-01-10T03:30:03.637Z,4.49
2017-01-10T03:31:03.647Z,4.48
2017-01-10T03:32:03.659Z,4.53
2017-01-10T03:33:03.673Z,4.48
2017-01-10T03:34:03.677Z,4.49
2017-01-10T03:35:03.693Z,4.5
2017-01-10T03:36:03.762Z,4.48
2017-01-10T03:37:03.711Z,4.45
2017-01-10T03:38:03.724Z,4.44
2017-01-10T03:39:03.730Z,4.42
2017-01-10T03:40:03.742Z,4.52
2017-01-10T03:41:03.750Z,4.41
2017-01-10T03:42:03.767Z,4.48
2017-01-10T03:43:03.770Z,4.44
2017-01-10T03:44:03.783Z,4.44
2017-01-10T03:45:03.795Z,4.41
2017-01-10T03:46:03.808Z,4.44
2017-01-10T03:47:03.818Z,4.44
2017-01-10T03:48:03.832Z,4.44
2017-01-10T03:49:03.839Z,4.41
2017-01-10T03:50:03.848Z,4.41
2017-01-10T03:51:03.859Z,4.44
2017-01-10T03:52:03.868Z,4.37
2017-01-10T03:53:03.877Z,4.34
2017-01-10T03:54:03.891Z,4.41
2017-01-10T03:55:03.902Z,4.35
2017-01-10T03:56:03.913Z,4.42
2017-01-10T03:57:03.929Z,4.34
2017-01-10T03:58:03.930Z,4.35
2017-01-10T03:59:03.944Z,4.35
2017-01-10T04:00:03.951Z,4.35
2017-01-10T04:01:03.962Z,4.37
2017-01-10T04:02:03.971Z,4.35
2017-01-10T04:03:03.984Z,4.32
2017-01-10T04:04:03.996Z,4.35
2017-01-10T04:05:03.999Z,4.37
2017-01-10T04:06:04.013Z,4.32
2017-01-10T04:07:04.024Z,4.35
2017-01-10T04:08:04.042Z,4.35
2017-01-10T04:09:04.042Z,4.41
2017-01-10T04:10:04.057Z,4.37
2017-01-10T04:11:04.063Z,4.32
2017-01-10T04:12:04.073Z,4.34
2017-01-10T04:13:04.087Z,4.37
2017-01-10T04:14:04.093Z,4.34
2017-01-10T04:15:04.505Z,4.31
2017-01-10T04:16:04.115Z,4.4
2017-01-10T04:17:04.128Z,4.3
2017-01-10T04:18:04.138Z,4.3
2017-01-10T04:19:04.146Z,4.26
2017-01-10T04:20:04.155Z,4.3
2017-01-10T04:21:04.175Z,4.28
2017-01-10T04:22:04.180Z,4.3
2017-01-10T04:23:04.188Z,4.4
2017-01-10T04:24:04.198Z,4.3
2017-01-10T04:25:04.210Z,4.3
2017-01-10T04:26:04.219Z,4.31
2017-01-10T04:27:04.231Z,4.31
2017-01-10T04:28:04.239Z,4.31
2017-01-10T04:29:04.255Z,4.4
2017-01-10T04:30:04.264Z,4.4
2017-01-10T04:31:04.269Z,4.3
2017-01-10T04:32:04.282Z,4.35
2017-01-10T04:33:04.297Z,4.3
2017-01-10T04:34:04.306Z,4.35
2017-01-10T04:35:04.315Z,4.31
2017-01-10T04:36:04.322Z,4.26
2017-01-10T04:37:04.333Z,4.31
2017-01-10T04:38:04.346Z,4.34
2017-01-10T04:39:04.358Z,4.32
2017-01-10T04:40:04.365Z,4.3
2017-01-10T04:41:04.374Z,4.31
2017-01-10T04:42:04.384Z,4.28
2017-01-10T04:43:04.395Z,4.28
2017-01-10T04:44:04.411Z,4.24
2017-01-10T04:45:04.415Z,4.32
2017-01-10T04:46:04.427Z,4.31
2017-01-10T04:47:04.436Z,4.32
2017-01-10T04:48:04.450Z,4.2
2017-01-10T04:49:04.459Z,4.3
2017-01-10T04:50:04.477Z,4.31
2017-01-10T04:51:04.478Z,4.26
2017-01-10T04:52:04.494Z,4.24
2017-01-10T04:53:04.499Z,4.31
2017-01-10T04:54:04.510Z,4.24
2017-01-10T04:55:04.523Z,4.35
2017-01-10T04:56:04.529Z,4.35
2017-01-10T04:57:04.546Z,4.23
2017-01-10T04:58:04.557Z,4.31
2017-01-10T04:59:04.563Z,4.22
2017-01-10T05:00:04.572Z,4.22
2017-01-10T05:01:04.582Z,4.31
2017-01-10T05:02:04.599Z,4.22
2017-01-10T05:03:04.604Z,4.24
2017-01-10T05:04:04.647Z,4.19
2017-01-10T05:05:04.631Z,4.23
2017-01-10T05:06:04.658Z,4.19
2017-01-10T05:07:04.646Z,4.31
2017-01-10T05:08:04.658Z,4.17
2017-01-10T05:09:04.670Z,4.22
2017-01-10T05:10:04.675Z,4.17
2017-01-10T05:11:04.691Z,4.22
2017-01-10T05:12:04.706Z,4.26
2017-01-10T05:13:04.708Z,4.22
2017-01-10T05:14:04.737Z,4.23
2017-01-10T05:15:04.730Z,4.2
2017-01-10T05:16:04.739Z,4.23
2017-01-10T05:17:04.749Z,4.23
2017-01-10T05:18:04.759Z,4.2
2017-01-10T05:19:04.769Z,4.2
2017-01-10T05:20:04.798Z,4.23
2017-01-10T05:21:05.187Z,4.24
2017-01-10T05:22:04.816Z,4.22
2017-01-10T05:23:04.816Z,4.17
2017-01-10T05:24:04.826Z,4.22
2017-01-10T05:25:05.230Z,4.22
2017-01-10T05:26:04.845Z,4.23
2017-01-10T05:27:04.852Z,4.19
2017-01-10T05:28:04.869Z,4.19
2017-01-10T05:29:04.872Z,4.26
2017-01-10T05:30:04.901Z,4.12
2017-01-10T05:31:04.899Z,4.26
2017-01-10T05:32:04.907Z,4.19
2017-01-10T05:33:04.919Z,4.26
2017-01-10T05:34:04.944Z,4.2
2017-01-10T05:35:04.931Z,4.16
2017-01-10T05:36:04.961Z,4.23
2017-01-10T05:37:04.955Z,4.23
2017-01-10T05:38:04.970Z,4.26
2017-01-10T05:39:04.983Z,4.19
2017-01-10T05:40:04.984Z,4.14
2017-01-10T05:41:04.999Z,4.19
2017-01-10T05:42:05.021Z,4.22
2017-01-10T05:43:05.021Z,4.19
2017-01-10T05:44:05.035Z,4.17
2017-01-10T05:45:05.039Z,4.2
2017-01-10T05:46:05.043Z,4.23
2017-01-10T05:47:05.074Z,4.19
2017-01-10T05:48:05.073Z,4.22
2017-01-10T05:49:05.092Z,4.22
2017-01-10T05:50:05.099Z,4.16
2017-01-10T05:51:05.114Z,4.23
2017-01-10T05:52:05.112Z,4.22
2017-01-10T05:53:05.119Z,4.16
2017-01-10T05:54:05.130Z,4.22
2017-01-10T05:55:05.141Z,4.26
2017-01-10T05:56:05.155Z,4.24
2017-01-10T05:57:05.163Z,4.2
2017-01-10T05:58:05.194Z,4.24
2017-01-10T05:59:05.181Z,4.3
2017-01-10T06:00:05.202Z,4.32
2017-01-10T06:01:05.201Z,4.23
2017-01-10T06:02:05.210Z,4.32
2017-01-10T06:03:05.223Z,4.32
2017-01-10T06:04:05.245Z,4.32
2017-01-10T06:05:05.245Z,4.28
2017-01-10T06:06:05.263Z,4.22
2017-01-10T06:07:05.263Z,4.35
2017-01-10T06:08:05.273Z,4.3
2017-01-10T06:09:05.289Z,4.3
2017-01-10T06:10:05.299Z,4.3
2017-01-10T06:11:05.303Z,4.35
2017-01-10T06:12:05.321Z,4.3
2017-01-10T06:13:05.328Z,4.34
2017-01-10T06:14:05.347Z,4.3
2017-01-10T06:15:05.343Z,4.31
2017-01-10T06:16:05.357Z,4.4
2017-01-10T06:17:05.367Z,4.35
2017-01-10T06:18:05.385Z,4.31
2017-01-10T06:19:05.388Z,4.32
2017-01-10T06:20:05.414Z,4.26
2017-01-10T06:21:05.407Z,4.26
2017-01-10T06:22:05.432Z,4.37
2017-01-10T06:23:05.425Z,4.24
2017-01-10T06:24:05.445Z,4.3
2017-01-10T06:25:05.448Z,4.31
2017-01-10T06:26:05.466Z,4.3
2017-01-10T06:27:05.472Z,4.3
2017-01-10T06:28:05.499Z,4.3
2017-01-10T06:29:05.494Z,4.24
2017-01-10T06:30:05.542Z,4.28
2017-01-10T06:31:05.508Z,4.28
2017-01-10T06:32:05.521Z,4.31
2017-01-10T06:33:05.533Z,4.3
2017-01-10T06:34:05.557Z,4.32
2017-01-10T06:35:05.553Z,4.28
2017-01-10T06:36:05.579Z,4.31
2017-01-10T06:37:05.573Z,4.31
2017-01-10T06:38:05.585Z,4.3
2017-01-10T06:39:05.594Z,4.31
2017-01-10T06:40:05.606Z,4.28
2017-01-10T06:41:05.618Z,4.35
2017-01-10T06:42:05.636Z,4.28
2017-01-10T06:43:05.638Z,4.28
2017-01-10T06:44:06.051Z,4.3
2017-01-10T06:45:05.657Z,4.26
2017-01-10T06:46:05.672Z,4.3
2017-01-10T06:47:05.673Z,4.3
2017-01-10T06:48:05.687Z,4.37
2017-01-10T06:49:05.696Z,4.35
2017-01-10T06:50:05.743Z,4.28
2017-01-10T06:51:05.721Z,4.26
2017-01-10T06:52:05.733Z,4.31
2017-01-10T06:53:05.738Z,4.41
2017-01-10T06:54:05.752Z,4.4
2017-01-10T06:55:05.760Z,4.32
2017-01-10T06:56:05.766Z,4.24
2017-01-10T06:57:05.777Z,4.34
2017-01-10T06:58:05.789Z,4.32
2017-01-10T06:59:05.800Z,4.34
2017-01-10T07:00:05.809Z,4.32
2017-01-10T07:01:05.821Z,4.3
2017-01-10T07:02:05.828Z,4.3
2017-01-10T07:03:05.839Z,4.24
2017-01-10T07:04:05.849Z,4.32
2017-01-10T07:05:05.859Z,4.3
2017-01-10T07:06:05.873Z,4.28
2017-01-10T07:07:05.909Z,4.31
2017-01-10T07:08:05.923Z,4.28
2017-01-10T07:09:05.899Z,4.37
2017-01-10T07:10:05.912Z,4.35
2017-01-10T07:11:05.922Z,4.28
2017-01-10T07:12:05.934Z,4.26
2017-01-10T07:13:05.946Z,4.32
2017-01-10T07:14:05.955Z,4.3
2017-01-10T07:15:05.991Z,4.28
2017-01-10T07:16:05.970Z,4.41
2017-01-10T07:17:05.983Z,4.4
2017-01-10T07:18:05.995Z,4.3
2017-01-10T07:19:06.007Z,4.31
2017-01-10T07:20:06.013Z,4.32
2017-01-10T07:21:06.025Z,4.37
2017-01-10T07:22:06.037Z,4.3
2017-01-10T07:23:06.044Z,4.3
2017-01-10T07:24:06.058Z,4.32
2017-01-10T07:25:06.072Z,4.32
2017-01-10T07:26:06.084Z,4.38
2017-01-10T07:27:06.108Z,4.34
2017-01-10T07:28:06.098Z,4.34
2017-01-10T07:29:06.107Z,4.28
2017-01-10T07:30:06.117Z,4.3
2017-01-10T07:31:06.125Z,4.32
2017-01-10T07:32:06.142Z,4.34
2017-01-10T07:33:06.152Z,4.32
2017-01-10T07:34:06.160Z,4.37
2017-01-10T07:35:06.172Z,4.31
2017-01-10T07:36:06.179Z,4.37
2017-01-10T07:37:06.190Z,4.35
2017-01-10T07:38:06.199Z,4.37
2017-01-10T07:39:06.208Z,4.3
2017-01-10T07:40:06.224Z,4.32
2017-01-10T07:41:06.227Z,4.34
2017-01-10T07:42:06.259Z,4.37
2017-01-10T07:43:06.254Z,4.37
2017-01-10T07:44:06.272Z,4.32
2017-01-10T07:45:06.278Z,4.32
2017-01-10T07:46:06.286Z,4.35
2017-01-10T07:47:06.300Z,4.37
2017-01-10T07:48:06.304Z,4.34
2017-01-10T07:49:06.314Z,4.34
2017-01-10T07:50:06.331Z,4.37
2017-01-10T07:51:06.335Z,4.38
2017-01-10T07:52:06.345Z,4.26
2017-01-10T07:53:06.352Z,4.3
2017-01-10T07:54:06.367Z,4.34
2017-01-10T07:55:06.375Z,4.34
2017-01-10T07:56:06.388Z,4.32
2017-01-10T07:57:06.401Z,4.35
2017-01-10T07:58:06.408Z,4.37
2017-01-10T07:59:06.419Z,4.42
2017-01-10T08:00:06.541Z,4.48
2017-01-10T08:01:06.438Z,4.35
2017-01-10T08:02:06.452Z,4.44
2017-01-10T08:03:06.457Z,4.48
2017-01-10T08:04:06.470Z,4.5
2017-01-10T08:05:06.486Z,4.44
2017-01-10T08:06:06.490Z,4.45
2017-01-10T08:07:06.502Z,4.44
2017-01-10T08:08:06.512Z,4.53
2017-01-10T08:09:06.522Z,4.49
2017-01-10T08:10:06.539Z,4.49
2017-01-10T08:11:06.541Z,4.44
2017-01-10T08:12:06.557Z,4.44
2017-01-10T08:13:06.563Z,4.52
2017-01-10T08:14:06.573Z,4.44
2017-01-10T08:15:06.583Z,4.55
2017-01-10T08:16:06.594Z,4.53
2017-01-10T08:17:06.604Z,4.49
2017-01-10T08:18:06.611Z,4.55
2017-01-10T08:19:06.625Z,4.48
2017-01-10T08:20:06.631Z,4.53
2017-01-10T08:21:06.647Z,4.55
2017-01-10T08:22:06.655Z,4.5
2017-01-10T08:23:06.660Z,4.5
2017-01-10T08:24:06.675Z,4.42
2017-01-10T08:25:06.686Z,4.52
2017-01-10T08:26:06.697Z,4.53
2017-01-10T08:27:06.713Z,4.56
2017-01-10T08:28:06.716Z,4.53
2017-01-10T08:29:06.738Z,4.59
2017-01-10T08:30:06.735Z,4.52
2017-01-10T08:31:06.749Z,4.58
2017-01-10T08:32:06.757Z,4.52
2017-01-10T08:33:06.766Z,4.52
2017-01-10T08:34:06.782Z,4.59
2017-01-10T08:35:06.788Z,4.52
2017-01-10T08:36:06.801Z,4.58
2017-01-10T08:37:06.806Z,4.52
2017-01-10T08:38:06.823Z,4.56
2017-01-10T08:39:06.829Z,4.62
2017-01-10T08:40:06.837Z,4.62
2017-01-10T08:41:06.851Z,4.59
2017-01-10T08:42:06.862Z,4.62
2017-01-10T08:43:06.871Z,4.62
2017-01-10T08:44:06.882Z,4.59
2017-01-10T08:45:06.899Z,4.6
2017-01-10T08:46:06.906Z,4.58
2017-01-10T08:47:06.918Z,4.7
2017-01-10T08:48:06.925Z,4.59
2017-01-10T08:49:06.937Z,4.6
2017-01-10T08:50:06.945Z,4.7
2017-01-10T08:51:06.953Z,4.56
2017-01-10T08:52:06.965Z,4.56
2017-01-10T08:53:06.982Z,4.68
2017-01-10T08:54:06.986Z,4.58
2017-01-10T08:55:06.997Z,4.58
2017-01-10T08:56:07.007Z,4.67
2017-01-10T08:57:07.015Z,4.59
2017-01-10T08:58:07.031Z,4.66
2017-01-10T08:59:07.039Z,4.71
2017-01-10T09:00:07.051Z,4.56
2017-01-10T09:01:07.061Z,4.53
2017-01-10T09:02:07.073Z,4.6
2017-01-10T09:03:07.079Z,4.6
2017-01-10T09:04:07.097Z,4.71
2017-01-10T09:05:07.095Z,4.58
2017-01-10T09:06:07.116Z,4.56
2017-01-10T09:07:07.125Z,4.6
2017-01-10T09:08:07.166Z,4.55
2017-01-10T09:09:07.180Z,4.59
2017-01-10T09:10:07.156Z,4.56
2017-01-10T09:11:07.166Z,4.52
2017-01-10T09:12:07.178Z,4.56
2017-01-10T09:13:07.185Z,4.67
2017-01-10T09:14:07.198Z,4.58
2017-01-10T09:15:07.210Z,4.58
2017-01-10T09:16:07.226Z,4.58
2017-01-10T09:17:07.226Z,4.74
2017-01-10T09:18:07.237Z,4.56
2017-01-10T09:19:07.250Z,4.59
2017-01-10T09:20:07.262Z,4.66
2017-01-10T09:21:07.276Z,4.6
2017-01-10T09:22:07.285Z,4.6
2017-01-10T09:23:07.289Z,4.7
2017-01-10T09:24:07.305Z,4.7
2017-01-10T09:25:07.312Z,4.59
2017-01-10T09:26:07.724Z,4.58
2017-01-10T09:27:07.332Z,4.53
2017-01-10T09:28:07.346Z,4.66
2017-01-10T09:29:07.364Z,4.71
2017-01-10T09:30:07.365Z,4.59
2017-01-10T09:31:07.425Z,4.7
2017-01-10T09:32:07.392Z,4.62
2017-01-10T09:33:07.401Z,4.74
2017-01-10T09:34:07.407Z,4.66
2017-01-10T09:35:07.416Z,4.74
2017-01-10T09:36:07.429Z,4.75
2017-01-10T09:37:07.444Z,4.73
2017-01-10T09:38:07.446Z,4.7
2017-01-10T09:39:07.469Z,4.7
2017-01-10T09:40:07.475Z,4.74
2017-01-10T09:41:07.485Z,4.68
2017-01-10T09:42:07.496Z,4.71
2017-01-10T09:43:07.498Z,4.67
2017-01-10T09:44:07.514Z,4.73
2017-01-10T09:45:07.530Z,4.74
2017-01-10T09:46:07.530Z,4.87
2017-01-10T09:47:07.548Z,4.75
2017-01-10T09:48:07.559Z,4.77
2017-01-10T09:49:07.572Z,4.68
2017-01-10T09:50:07.585Z,4.77
2017-01-10T09:51:07.589Z,4.68
2017-01-10T09:52:07.614Z,4.84
2017-01-10T09:53:07.615Z,4.75
2017-01-10T09:54:07.642Z,4.78
2017-01-10T09:55:07.629Z,4.82
2017-01-10T09:56:07.640Z,4.84
2017-01-10T09:57:07.651Z,4.87
2017-01-10T09:58:07.656Z,4.86
2017-01-10T09:59:07.671Z,4.84
2017-01-10T10:00:07.686Z,4.82
2017-01-10T10:01:07.694Z,4.77
2017-01-10T10:02:07.701Z,4.84
2017-01-10T10:03:07.711Z,4.8
2017-01-10T10:04:07.719Z,4.9
2017-01-10T10:05:07.731Z,4.92
2017-01-10T10:06:07.747Z,4.87
2017-01-10T10:07:07.757Z,4.86
2017-01-10T10:08:07.770Z,4.92
2017-01-10T10:09:07.776Z,4.8
2017-01-10T10:10:07.791Z,4.82
2017-01-10T10:11:07.797Z,4.92
2017-01-10T10:12:07.809Z,4.92
2017-01-10T10:13:07.815Z,4.89
2017-01-10T10:14:07.827Z,4.87
2017-01-10T10:15:07.836Z,4.84
2017-01-10T10:16:07.844Z,4.93
2017-01-10T10:17:07.858Z,4.93
2017-01-10T10:18:07.864Z,4.93
2017-01-10T10:19:07.888Z,4.9
2017-01-10T10:20:07.887Z,4.89
2017-01-10T10:21:07.895Z,5.02
2017-01-10T10:22:07.905Z,4.97
2017-01-10T10:23:07.921Z,4.99
2017-01-10T10:24:07.930Z,4.89
2017-01-10T10:25:07.942Z,4.99
2017-01-10T10:26:07.952Z,5
2017-01-10T10:27:07.960Z,4.97
2017-01-10T10:28:07.971Z,5
2017-01-10T10:29:07.980Z,5.05
2017-01-10T10:30:08.000Z,5.1
2017-01-10T10:31:08.025Z,5.05
2017-01-10T10:32:08.019Z,5.08
2017-01-10T10:33:08.028Z,5.1
2017-01-10T10:34:08.046Z,5.07
2017-01-10T10:35:08.044Z,5.1
2017-01-10T10:36:08.056Z,5.11
2017-01-10T10:37:08.067Z,5.15
2017-01-10T10:38:08.074Z,5.12
2017-01-10T10:39:08.086Z,5.1
2017-01-10T10:40:08.097Z,5.1
2017-01-10T10:41:08.106Z,5.18
2017-01-10T10:42:08.120Z,5.21
2017-01-10T10:43:08.130Z,5.2
2017-01-10T10:44:08.137Z,5.14
2017-01-10T10:45:08.144Z,5.17
2017-01-10T10:46:08.159Z,5.26
2017-01-10T10:47:08.164Z,5.25
2017-01-10T10:48:08.176Z,5.25
2017-01-10T10:49:08.187Z,5.17
2017-01-10T10:50:08.208Z,5.18
2017-01-10T10:51:08.209Z,5.15
2017-01-10T10:52:08.224Z,5.18
2017-01-10T10:53:08.232Z,5.17
2017-01-10T10:54:08.241Z,5.17
2017-01-10T10:55:08.251Z,5.23
2017-01-10T10:56:08.262Z,5.21
2017-01-10T10:57:08.273Z,5.18
2017-01-10T10:58:08.304Z,5.21
2017-01-10T10:59:08.294Z,5.2
2017-01-10T11:00:08.304Z,5.23
2017-01-10T11:01:08.314Z,5.36
2017-01-10T11:02:08.328Z,5.38
2017-01-10T11:03:08.335Z,5.29
2017-01-10T11:04:08.350Z,5.33
2017-01-10T11:05:08.362Z,5.36
2017-01-10T11:06:08.364Z,5.33
2017-01-10T11:07:08.381Z,5.3
2017-01-10T11:08:08.386Z,5.3
2017-01-10T11:09:08.403Z,5.35
2017-01-10T11:10:08.409Z,5.3
2017-01-10T11:11:08.418Z,5.32
2017-01-10T11:12:08.436Z,5.36
2017-01-10T11:13:08.455Z,5.36
2017-01-10T11:14:08.458Z,5.35
2017-01-10T11:15:08.464Z,5.36
2017-01-10T11:16:08.474Z,5.35
2017-01-10T11:17:08.486Z,5.29
2017-01-10T11:18:08.496Z,5.29
2017-01-10T11:19:08.508Z,5.41
2017-01-10T11:20:08.517Z,5.41
2017-01-10T11:21:08.532Z,5.47
2017-01-10T11:22:08.538Z,5.44
2017-01-10T11:23:08.549Z,5.39
2017-01-10T11:24:08.556Z,5.43
2017-01-10T11:25:08.574Z,5.44
2017-01-10T11:26:08.581Z,5.39
2017-01-10T11:27:08.595Z,5.44
2017-01-10T11:28:08.603Z,5.38
2017-01-10T11:29:08.614Z,5.46
2017-01-10T11:30:08.622Z,5.47
2017-01-10T11:31:08.633Z,5.46
2017-01-10T11:32:08.652Z,5.47
2017-01-10T11:33:08.658Z,5.48
2017-01-10T11:34:08.675Z,5.53
2017-01-10T11:35:08.683Z,5.53
2017-01-10T11:36:08.691Z,5.48
2017-01-10T11:37:08.702Z,5.47
2017-01-10T11:38:08.716Z,5.56
2017-01-10T11:39:08.730Z,5.5
2017-01-10T11:40:08.738Z,5.54
2017-01-10T11:41:08.746Z,5.56
2017-01-10T11:42:08.756Z,5.51
2017-01-10T11:43:08.771Z,5.56
2017-01-10T11:44:08.777Z,5.59
2017-01-10T11:45:08.792Z,5.5
2017-01-10T11:46:08.803Z,5.5
2017-01-10T11:47:08.811Z,5.62
2017-01-10T11:48:08.827Z,5.59
2017-01-10T11:49:08.835Z,5.56
2017-01-10T11:50:08.849Z,5.54
2017-01-10T11:51:08.858Z,5.53
2017-01-10T11:52:08.866Z,5.54
2017-01-10T11:53:08.875Z,5.5
2017-01-10T11:54:08.897Z,5.64
2017-01-10T11:55:08.905Z,5.59
2017-01-10T11:56:08.910Z,5.62
2017-01-10T11:57:08.923Z,5.48
2017-01-10T11:58:09.335Z,5.48
2017-01-10T11:59:08.942Z,5.61
2017-01-10T12:00:08.956Z,5.51
2017-01-10T12:01:08.979Z,5.53
2017-01-10T12:02:08.983Z,5.59
2017-01-10T12:03:09.019Z,5.61
2017-01-10T12:04:09.012Z,5.62
2017-01-10T12:05:09.013Z,5.68
2017-01-10T12:06:09.025Z,5.61
2017-01-10T12:07:09.031Z,5.64
2017-01-10T12:08:09.039Z,5.68
2017-01-10T12:09:09.052Z,5.64
2017-01-10T12:10:09.071Z,5.59
2017-01-10T12:11:09.075Z,5.62
2017-01-10T12:12:09.087Z,5.68
2017-01-10T12:13:09.103Z,5.65
2017-01-10T12:14:09.111Z,5.61
2017-01-10T12:15:09.119Z,5.61
2017-01-10T12:16:09.130Z,5.73
2017-01-10T12:17:09.145Z,5.71
2017-01-10T12:18:09.151Z,5.65
2017-01-10T12:19:09.165Z,5.68
2017-01-10T12:20:09.180Z,5.61
2017-01-10T12:21:09.189Z,5.65
2017-01-10T12:22:09.200Z,5.73
2017-01-10T12:23:09.208Z,5.65
2017-01-10T12:24:09.219Z,5.69
2017-01-10T12:25:09.236Z,5.61
2017-01-10T12:26:09.246Z,5.69
2017-01-10T12:27:09.251Z,5.68
2017-01-10T12:28:09.268Z,5.75
2017-01-10T12:29:09.281Z,5.73
2017-01-10T12:30:09.290Z,5.72
2017-01-10T12:31:09.297Z,5.73
2017-01-10T12:32:09.314Z,5.66
2017-01-10T12:33:09.320Z,5.72
2017-01-10T12:34:09.335Z,5.72
2017-01-10T12:35:09.341Z,5.69
2017-01-10T12:36:09.357Z,5.75
2017-01-10T12:37:09.365Z,5.68
2017-01-10T12:38:09.380Z,5.79
2017-01-10T12:39:09.381Z,5.69
2017-01-10T12:40:09.405Z,5.64
2017-01-10T12:41:09.409Z,5.71
2017-01-10T12:42:09.428Z,5.65
2017-01-10T12:43:09.433Z,5.62
2017-01-10T12:44:09.452Z,5.59
2017-01-10T12:45:09.464Z,5.64
2017-01-10T12:46:09.471Z,5.76
2017-01-10T12:47:09.480Z,5.66
2017-01-10T12:48:09.488Z,5.73
2017-01-10T12:49:09.502Z,5.66
2017-01-10T12:50:09.516Z,5.66
2017-01-10T12:51:09.525Z,5.71
2017-01-10T12:52:09.541Z,5.62
2017-01-10T12:53:09.544Z,5.64
2017-01-10T12:54:09.558Z,5.72
2017-01-10T12:55:09.568Z,5.69
2017-01-10T12:56:09.576Z,5.65
2017-01-10T12:57:09.591Z,5.68
2017-01-10T12:58:09.604Z,5.71
2017-01-10T12:59:09.616Z,5.62
2017-01-10T13:00:09.629Z,5.61
2017-01-10T13:01:09.638Z,5.59
2017-01-10T13:02:09.646Z,5.57
2017-01-10T13:03:09.661Z,5.57
2017-01-10T13:04:09.671Z,5.61
2017-01-10T13:05:09.690Z,5.57
2017-01-10T13:06:09.703Z,5.57
2017-01-10T13:07:09.705Z,5.5
2017-01-10T13:08:09.725Z,5.59
2017-01-10T13:09:09.738Z,5.48
2017-01-10T13:10:09.738Z,5.5
2017-01-10T13:11:09.752Z,5.57
2017-01-10T13:12:09.765Z,5.51
2017-01-10T13:13:09.771Z,5.59
2017-01-10T13:14:09.783Z,5.59
2017-01-10T13:15:09.791Z,5.48
2017-01-10T13:16:09.805Z,5.56
2017-01-10T13:17:09.816Z,5.59
2017-01-10T13:18:09.829Z,5.53
2017-01-10T13:19:09.836Z,5.48
2017-01-10T13:20:09.849Z,5.56
2017-01-10T13:21:09.863Z,5.46
2017-01-10T13:22:09.879Z,5.48